PWSweather.com
Personal Weather Stations
Station Observations
METEOSOB
BrnoSobesiceCZ 644 00

BrnoSobesiceCZ 644 00

Lat: 49.2538513, Lon: 16.623951000000034

Elevation: 374

Station Type: WH 1080

http://meteo-jn.cz

Latest ConditionsUpdated 9:00:01 AM GMT+01:01 Tuesday, Jul 17, 2018
Currently Today's Max Today's Min Today's Average
Temperature 74.7°F23.7°C 74.7°F23.7°C 62.1°F16.7°C 65.0°F18.3°C
Dew Point 62.6°F17.0°C 62.6°F17.0°C 57.8°F14.3°C 59.1°F15.1°C
Winds 4.5 mph NW7.2 kmh NW 5.1 mph -8.2 kmh - - 2.7 mph 4.3 kmh
Wind Gusts 12.1 mph19.5 kmh 12.1 mph19.5 kmh - -
Humidity 66% 87% 66% 81%
Pressure 29.86 in1011.2 mb 29.88 in1011.9 mb 29.86 in1011.2 mb -
Hour Temp Dew Point Humidity Winds Wind Gusts Pressure Precip Precip Rate Daily Precip Total
09:00 AM 74.7°F23.7°C 62.6°F17.0°C 66% 4.5 mph NW7.2 kmh NW 12.1 mph19.5 kmh 29.86 in1011.2 mb 0.00 in0.0 mm 0.00 in0.0 mm 0.00 in0.0 mm
08:45 AM 73.0°F22.8°C 61.9°F16.6°C 68% 4.1 mph NW6.6 kmh NW 11.4 mph18.3 kmh 29.87 in1011.5 mb 0.00 in0.0 mm 0.00 in0.0 mm 0.00 in0.0 mm
08:30 AM 71.6°F22.0°C 61.7°F16.5°C 71% 3.8 mph NW6.1 kmh NW 9.8 mph15.8 kmh 29.87 in1011.5 mb 0.00 in0.0 mm 0.00 in0.0 mm 0.00 in0.0 mm
08:15 AM 70.0°F21.1°C 61.0°F16.1°C 73% 4.0 mph NNW6.4 kmh NNW 9.8 mph15.8 kmh 29.87 in1011.5 mb 0.00 in0.0 mm 0.00 in0.0 mm 0.00 in0.0 mm
08:00 AM 69.1°F20.6°C 60.5°F15.8°C 74% 4.9 mph WNW7.9 kmh WNW 10.7 mph17.2 kmh 29.87 in1011.5 mb 0.00 in0.0 mm 0.00 in0.0 mm 0.00 in0.0 mm
07:45 AM 68.5°F20.3°C 60.3°F15.7°C 75% 4.2 mph NW6.8 kmh NW 10.7 mph17.2 kmh 29.87 in1011.5 mb 0.00 in0.0 mm 0.00 in0.0 mm 0.00 in0.0 mm
07:30 AM 67.5°F19.7°C 60.4°F15.8°C 78% 4.2 mph NW6.8 kmh NW 9.8 mph15.8 kmh 29.86 in1011.2 mb 0.00 in0.0 mm 0.00 in0.0 mm 0.00 in0.0 mm
07:15 AM 66.4°F19.1°C 60.0°F15.6°C 80% 5.1 mph NW8.2 kmh NW 11.4 mph18.3 kmh 29.87 in1011.5 mb 0.00 in0.0 mm 0.00 in0.0 mm 0.00 in0.0 mm
07:00 AM 65.7°F18.7°C 60.0°F15.6°C 82% 3.2 mph NW5.1 kmh NW 7.6 mph12.2 kmh 29.87 in1011.5 mb 0.00 in0.0 mm 0.00 in0.0 mm 0.00 in0.0 mm
06:45 AM 64.8°F18.2°C 59.5°F15.3°C 83% 3.5 mph WNW5.6 kmh WNW 6.9 mph11.1 kmh 29.87 in1011.5 mb 0.00 in0.0 mm 0.00 in0.0 mm 0.00 in0.0 mm
06:31 AM 64.4°F18.0°C 59.1°F15.1°C 83% 3.5 mph NW5.6 kmh NW 6.9 mph11.1 kmh 29.87 in1011.5 mb 0.00 in0.0 mm 0.00 in0.0 mm 0.00 in0.0 mm
06:15 AM 63.9°F17.7°C 59.0°F15.0°C 84% 2.4 mph NW3.9 kmh NW 6.0 mph9.7 kmh 29.86 in1011.2 mb 0.00 in0.0 mm 0.00 in0.0 mm 0.00 in0.0 mm
06:00 AM 63.1°F17.3°C 58.9°F14.9°C 86% 2.7 mph NW4.3 kmh NW 6.0 mph9.7 kmh 29.87 in1011.5 mb 0.00 in0.0 mm 0.00 in0.0 mm 0.00 in0.0 mm
05:45 AM 63.0°F17.2°C 58.7°F14.8°C 86% 2.9 mph NW4.7 kmh NW 8.3 mph13.4 kmh 29.86 in1011.2 mb 0.00 in0.0 mm 0.00 in0.0 mm 0.00 in0.0 mm
05:30 AM 63.0°F17.2°C 58.4°F14.7°C 85% 2.8 mph NW4.5 kmh NW 6.0 mph9.7 kmh 29.87 in1011.5 mb 0.00 in0.0 mm 0.00 in0.0 mm 0.00 in0.0 mm
05:15 AM 63.0°F17.2°C 58.4°F14.7°C 85% 1.9 mph NW3.1 kmh NW 6.0 mph9.7 kmh 29.87 in1011.5 mb 0.00 in0.0 mm 0.00 in0.0 mm 0.00 in0.0 mm
05:00 AM 62.6°F17.0°C 58.4°F14.7°C 86% 1.5 mph NW2.4 kmh NW 3.8 mph6.1 kmh 29.87 in1011.5 mb 0.00 in0.0 mm 0.00 in0.0 mm 0.00 in0.0 mm
04:45 AM 62.4°F16.9°C 58.2°F14.6°C 86% 1.5 mph NW2.4 kmh NW 4.5 mph7.2 kmh 29.87 in1011.5 mb 0.00 in0.0 mm 0.00 in0.0 mm 0.00 in0.0 mm
04:30 AM 62.1°F16.7°C 58.2°F14.6°C 87% 1.2 mph NW1.9 kmh NW 4.5 mph7.2 kmh 29.87 in1011.5 mb 0.00 in0.0 mm 0.00 in0.0 mm 0.00 in0.0 mm
04:15 AM 62.1°F16.7°C 57.8°F14.3°C 86% 2.0 mph NW3.2 kmh NW 6.0 mph9.7 kmh 29.87 in1011.5 mb 0.00 in0.0 mm 0.00 in0.0 mm 0.00 in0.0 mm
04:00 AM 62.4°F16.9°C 57.9°F14.4°C 85% 1.2 mph NW1.9 kmh NW 4.5 mph7.2 kmh 29.87 in1011.5 mb 0.00 in0.0 mm 0.00 in0.0 mm 0.00 in0.0 mm
03:45 AM 62.4°F16.9°C 57.9°F14.4°C 85% 1.6 mph NW2.6 kmh NW 6.9 mph11.1 kmh 29.87 in1011.5 mb 0.00 in0.0 mm 0.00 in0.0 mm 0.00 in0.0 mm
03:30 AM 62.6°F17.0°C 58.0°F14.4°C 85% 2.6 mph NW4.2 kmh NW 6.0 mph9.7 kmh 29.87 in1011.5 mb 0.00 in0.0 mm 0.00 in0.0 mm 0.00 in0.0 mm
03:15 AM 62.6°F17.0°C 58.0°F14.4°C 85% 1.7 mph NNW2.7 kmh NNW 4.5 mph7.2 kmh 29.86 in1011.2 mb 0.00 in0.0 mm 0.00 in0.0 mm 0.00 in0.0 mm
03:00 AM 62.6°F17.0°C 58.4°F14.7°C 86% 1.1 mph NW1.8 kmh NW 3.8 mph6.1 kmh 29.86 in1011.2 mb 0.00 in0.0 mm 0.00 in0.0 mm 0.00 in0.0 mm
02:45 AM 62.8°F17.1°C 58.5°F14.7°C 86% 2.0 mph NW3.2 kmh NW 5.4 mph8.7 kmh 29.86 in1011.2 mb 0.00 in0.0 mm 0.00 in0.0 mm 0.00 in0.0 mm
02:30 AM 62.8°F17.1°C 58.9°F14.9°C 87% 1.4 mph NNW2.3 kmh NNW 4.5 mph7.2 kmh 29.87 in1011.5 mb 0.00 in0.0 mm 0.00 in0.0 mm 0.00 in0.0 mm
02:15 AM 63.0°F17.2°C 59.0°F15.0°C 87% 2.6 mph NW4.2 kmh NW 6.9 mph11.1 kmh 29.87 in1011.5 mb 0.00 in0.0 mm 0.00 in0.0 mm 0.00 in0.0 mm
02:00 AM 63.7°F17.6°C 58.8°F14.9°C 84% 2.1 mph NW3.4 kmh NW 6.0 mph9.7 kmh 29.87 in1011.5 mb 0.00 in0.0 mm 0.00 in0.0 mm 0.00 in0.0 mm
01:45 AM 63.7°F17.6°C 58.4°F14.7°C 83% 3.0 mph NW4.8 kmh NW 6.9 mph11.1 kmh 29.86 in1011.2 mb 0.00 in0.0 mm 0.00 in0.0 mm 0.00 in0.0 mm
01:30 AM 63.9°F17.7°C 58.3°F14.6°C 82% 3.8 mph WNW6.1 kmh WNW 8.3 mph13.4 kmh 29.86 in1011.2 mb 0.00 in0.0 mm 0.00 in0.0 mm 0.00 in0.0 mm
01:15 AM 64.6°F18.1°C 58.3°F14.6°C 80% 2.6 mph NW4.2 kmh NW 6.9 mph11.1 kmh 29.86 in1011.2 mb 0.00 in0.0 mm 0.00 in0.0 mm 0.00 in0.0 mm
01:00 AM 64.8°F18.2°C 58.5°F14.7°C 80% 2.2 mph NW3.5 kmh NW 7.6 mph12.2 kmh 29.87 in1011.5 mb 0.00 in0.0 mm 0.00 in0.0 mm 0.00 in0.0 mm
12:45 AM 65.1°F18.4°C 58.5°F14.7°C 79% 2.5 mph NW4.0 kmh NW 7.6 mph12.2 kmh 29.87 in1011.5 mb 0.00 in0.0 mm 0.00 in0.0 mm 0.00 in0.0 mm
12:30 AM 65.7°F18.7°C 58.6°F14.8°C 78% 2.5 mph WNW4.0 kmh WNW 6.0 mph9.7 kmh 29.88 in1011.9 mb 0.00 in0.0 mm 0.00 in0.0 mm 0.00 in0.0 mm
12:15 AM 66.2°F19.0°C 59.2°F15.1°C 78% 1.0 mph NW1.6 kmh NW 4.5 mph7.2 kmh 29.88 in1011.9 mb 0.00 in0.0 mm 0.00 in0.0 mm 0.00 in0.0 mm
12:00 AM 66.6°F19.2°C 59.1°F15.1°C 77% 1.4 mph NW2.3 kmh NW 6.0 mph9.7 kmh 29.88 in1011.9 mb 0.00 in0.0 mm 0.00 in0.0 mm 0.00 in0.0 mm